sensor_id;sensor_type;location;lat;lon;timestamp;P1;durP1;ratioP1;P2;durP2;ratioP2
4738;SDS011;2383;48.632;10.156;2023-06-14T00:02:42;4.90;;;3.78;;
4738;SDS011;2383;48.632;10.156;2023-06-14T00:06:44;6.75;;;4.35;;
4738;SDS011;2383;48.632;10.156;2023-06-14T00:10:46;6.28;;;4.00;;
4738;SDS011;2383;48.632;10.156;2023-06-14T00:14:49;5.40;;;3.90;;
4738;SDS011;2383;48.632;10.156;2023-06-14T00:18:51;6.47;;;4.22;;
4738;SDS011;2383;48.632;10.156;2023-06-14T00:22:54;11.27;;;4.55;;
4738;SDS011;2383;48.632;10.156;2023-06-14T00:26:56;7.28;;;4.65;;
4738;SDS011;2383;48.632;10.156;2023-06-14T00:30:59;9.70;;;4.88;;
4738;SDS011;2383;48.632;10.156;2023-06-14T00:35:02;7.45;;;4.70;;
4738;SDS011;2383;48.632;10.156;2023-06-14T00:39:05;7.20;;;4.22;;
4738;SDS011;2383;48.632;10.156;2023-06-14T00:43:09;9.07;;;4.90;;
4738;SDS011;2383;48.632;10.156;2023-06-14T00:47:11;10.23;;;4.95;;
4738;SDS011;2383;48.632;10.156;2023-06-14T00:51:13;12.23;;;5.60;;
4738;SDS011;2383;48.632;10.156;2023-06-14T00:55:16;7.22;;;4.78;;
4738;SDS011;2383;48.632;10.156;2023-06-14T00:59:18;7.30;;;4.63;;
4738;SDS011;2383;48.632;10.156;2023-06-14T01:03:20;9.63;;;4.75;;
4738;SDS011;2383;48.632;10.156;2023-06-14T01:07:38;8.27;;;4.40;;
4738;SDS011;2383;48.632;10.156;2023-06-14T01:12:11;7.78;;;5.30;;
4738;SDS011;2383;48.632;10.156;2023-06-14T01:16:20;8.98;;;4.93;;
4738;SDS011;2383;48.632;10.156;2023-06-14T01:20:22;6.93;;;4.43;;
4738;SDS011;2383;48.632;10.156;2023-06-14T01:24:30;7.03;;;4.22;;
4738;SDS011;2383;48.632;10.156;2023-06-14T01:28:35;9.82;;;4.78;;
4738;SDS011;2383;48.632;10.156;2023-06-14T01:32:37;9.18;;;4.63;;
4738;SDS011;2383;48.632;10.156;2023-06-14T01:36:41;6.97;;;4.93;;
4738;SDS011;2383;48.632;10.156;2023-06-14T01:40:45;6.68;;;5.05;;
4738;SDS011;2383;48.632;10.156;2023-06-14T01:44:48;8.43;;;4.68;;
4738;SDS011;2383;48.632;10.156;2023-06-14T01:48:54;5.50;;;4.50;;
4738;SDS011;2383;48.632;10.156;2023-06-14T01:52:56;7.22;;;4.57;;
4738;SDS011;2383;48.632;10.156;2023-06-14T01:56:59;6.60;;;4.53;;
4738;SDS011;2383;48.632;10.156;2023-06-14T02:01:01;5.15;;;3.90;;
4738;SDS011;2383;48.632;10.156;2023-06-14T02:05:04;7.43;;;4.85;;
4738;SDS011;2383;48.632;10.156;2023-06-14T02:09:06;5.20;;;4.13;;
4738;SDS011;2383;48.632;10.156;2023-06-14T02:13:08;6.47;;;4.38;;
4738;SDS011;2383;48.632;10.156;2023-06-14T02:17:10;6.18;;;4.80;;
4738;SDS011;2383;48.632;10.156;2023-06-14T02:21:13;14.48;;;5.53;;
4738;SDS011;2383;48.632;10.156;2023-06-14T02:25:15;10.65;;;4.60;;
4738;SDS011;2383;48.632;10.156;2023-06-14T02:29:17;8.00;;;4.75;;
4738;SDS011;2383;48.632;10.156;2023-06-14T02:33:19;6.60;;;4.72;;
4738;SDS011;2383;48.632;10.156;2023-06-14T02:37:21;8.68;;;5.00;;
4738;SDS011;2383;48.632;10.156;2023-06-14T02:41:23;6.85;;;4.82;;
4738;SDS011;2383;48.632;10.156;2023-06-14T02:45:27;6.47;;;4.57;;
4738;SDS011;2383;48.632;10.156;2023-06-14T02:49:29;5.43;;;4.32;;
4738;SDS011;2383;48.632;10.156;2023-06-14T02:53:31;5.63;;;4.70;;
4738;SDS011;2383;48.632;10.156;2023-06-14T02:57:33;7.85;;;5.15;;
4738;SDS011;2383;48.632;10.156;2023-06-14T03:01:36;6.68;;;4.88;;
4738;SDS011;2383;48.632;10.156;2023-06-14T03:05:46;8.40;;;4.75;;
4738;SDS011;2383;48.632;10.156;2023-06-14T03:09:55;6.45;;;4.60;;
4738;SDS011;2383;48.632;10.156;2023-06-14T03:13:57;9.18;;;4.78;;
4738;SDS011;2383;48.632;10.156;2023-06-14T03:18:01;8.23;;;4.57;;
4738;SDS011;2383;48.632;10.156;2023-06-14T03:22:04;11.65;;;5.00;;
4738;SDS011;2383;48.632;10.156;2023-06-14T03:26:10;7.43;;;5.03;;
4738;SDS011;2383;48.632;10.156;2023-06-14T03:30:16;8.15;;;5.03;;
4738;SDS011;2383;48.632;10.156;2023-06-14T03:34:22;8.32;;;5.25;;
4738;SDS011;2383;48.632;10.156;2023-06-14T03:38:24;8.45;;;4.88;;
4738;SDS011;2383;48.632;10.156;2023-06-14T03:42:27;6.63;;;4.88;;
4738;SDS011;2383;48.632;10.156;2023-06-14T03:46:29;6.50;;;4.55;;
4738;SDS011;2383;48.632;10.156;2023-06-14T03:50:31;7.60;;;4.60;;
4738;SDS011;2383;48.632;10.156;2023-06-14T03:54:34;8.02;;;5.22;;
4738;SDS011;2383;48.632;10.156;2023-06-14T03:58:39;5.47;;;4.68;;
4738;SDS011;2383;48.632;10.156;2023-06-14T04:02:42;11.40;;;5.00;;
4738;SDS011;2383;48.632;10.156;2023-06-14T04:06:45;12.65;;;5.38;;
4738;SDS011;2383;48.632;10.156;2023-06-14T04:10:50;5.55;;;4.65;;
4738;SDS011;2383;48.632;10.156;2023-06-14T04:14:52;9.40;;;5.50;;
4738;SDS011;2383;48.632;10.156;2023-06-14T04:18:54;7.22;;;4.90;;
4738;SDS011;2383;48.632;10.156;2023-06-14T04:22:57;6.57;;;4.70;;
4738;SDS011;2383;48.632;10.156;2023-06-14T04:26:59;10.95;;;5.00;;
4738;SDS011;2383;48.632;10.156;2023-06-14T04:31:03;7.63;;;4.70;;
4738;SDS011;2383;48.632;10.156;2023-06-14T04:35:07;13.25;;;5.40;;
4738;SDS011;2383;48.632;10.156;2023-06-14T04:39:12;12.55;;;5.22;;
4738;SDS011;2383;48.632;10.156;2023-06-14T04:43:15;7.65;;;5.00;;
4738;SDS011;2383;48.632;10.156;2023-06-14T04:47:20;8.20;;;5.13;;
4738;SDS011;2383;48.632;10.156;2023-06-14T04:51:23;9.60;;;5.00;;
4738;SDS011;2383;48.632;10.156;2023-06-14T04:55:31;6.75;;;4.70;;
4738;SDS011;2383;48.632;10.156;2023-06-14T04:59:36;7.90;;;5.00;;
4738;SDS011;2383;48.632;10.156;2023-06-14T05:03:38;7.80;;;4.82;;
4738;SDS011;2383;48.632;10.156;2023-06-14T05:07:40;14.63;;;5.30;;
4738;SDS011;2383;48.632;10.156;2023-06-14T05:11:43;10.77;;;4.32;;
4738;SDS011;2383;48.632;10.156;2023-06-14T05:15:46;8.35;;;4.97;;
4738;SDS011;2383;48.632;10.156;2023-06-14T05:19:48;15.65;;;5.20;;
4738;SDS011;2383;48.632;10.156;2023-06-14T05:23:51;7.32;;;4.90;;
4738;SDS011;2383;48.632;10.156;2023-06-14T05:27:53;10.15;;;4.70;;
4738;SDS011;2383;48.632;10.156;2023-06-14T05:31:55;10.73;;;4.90;;
4738;SDS011;2383;48.632;10.156;2023-06-14T05:35:57;10.18;;;4.68;;
4738;SDS011;2383;48.632;10.156;2023-06-14T05:39:59;11.98;;;5.60;;
4738;SDS011;2383;48.632;10.156;2023-06-14T05:44:01;8.30;;;4.47;;
4738;SDS011;2383;48.632;10.156;2023-06-14T05:48:03;16.70;;;5.57;;
4738;SDS011;2383;48.632;10.156;2023-06-14T05:52:06;6.97;;;5.05;;
4738;SDS011;2383;48.632;10.156;2023-06-14T05:56:08;14.73;;;4.80;;
4738;SDS011;2383;48.632;10.156;2023-06-14T06:00:10;14.25;;;5.22;;
4738;SDS011;2383;48.632;10.156;2023-06-14T06:04:16;7.07;;;4.40;;
4738;SDS011;2383;48.632;10.156;2023-06-14T06:08:18;9.32;;;4.70;;
4738;SDS011;2383;48.632;10.156;2023-06-14T06:12:21;7.57;;;4.63;;
4738;SDS011;2383;48.632;10.156;2023-06-14T06:16:23;9.02;;;4.50;;
4738;SDS011;2383;48.632;10.156;2023-06-14T06:20:26;7.30;;;4.45;;
4738;SDS011;2383;48.632;10.156;2023-06-14T06:24:30;5.97;;;4.18;;
4738;SDS011;2383;48.632;10.156;2023-06-14T06:28:33;9.32;;;4.60;;
4738;SDS011;2383;48.632;10.156;2023-06-14T06:32:35;7.13;;;4.00;;
4738;SDS011;2383;48.632;10.156;2023-06-14T06:36:37;5.40;;;3.95;;
4738;SDS011;2383;48.632;10.156;2023-06-14T06:40:39;6.43;;;3.88;;
4738;SDS011;2383;48.632;10.156;2023-06-14T06:44:41;5.13;;;3.85;;
4738;SDS011;2383;48.632;10.156;2023-06-14T06:48:43;4.28;;;3.70;;
4738;SDS011;2383;48.632;10.156;2023-06-14T06:52:45;6.40;;;3.58;;
4738;SDS011;2383;48.632;10.156;2023-06-14T06:56:48;6.38;;;3.65;;
4738;SDS011;2383;48.632;10.156;2023-06-14T07:00:50;5.38;;;3.20;;
4738;SDS011;2383;48.632;10.156;2023-06-14T07:04:52;4.95;;;3.28;;
4738;SDS011;2383;48.632;10.156;2023-06-14T07:08:54;4.63;;;3.30;;
4738;SDS011;2383;48.632;10.156;2023-06-14T07:12:56;5.35;;;3.50;;
4738;SDS011;2383;48.632;10.156;2023-06-14T07:16:58;7.25;;;3.38;;
4738;SDS011;2383;48.632;10.156;2023-06-14T07:21:01;8.00;;;3.90;;
4738;SDS011;2383;48.632;10.156;2023-06-14T07:25:03;4.97;;;3.88;;
4738;SDS011;2383;48.632;10.156;2023-06-14T07:29:06;7.90;;;3.47;;
4738;SDS011;2383;48.632;10.156;2023-06-14T07:33:07;6.97;;;3.63;;
4738;SDS011;2383;48.632;10.156;2023-06-14T07:37:10;3.80;;;3.45;;
4738;SDS011;2383;48.632;10.156;2023-06-14T07:41:12;7.88;;;3.30;;
4738;SDS011;2383;48.632;10.156;2023-06-14T07:45:14;4.40;;;3.42;;
4738;SDS011;2383;48.632;10.156;2023-06-14T07:49:17;7.32;;;3.95;;
4738;SDS011;2383;48.632;10.156;2023-06-14T07:53:19;6.28;;;3.67;;
4738;SDS011;2383;48.632;10.156;2023-06-14T07:57:21;8.68;;;3.25;;
4738;SDS011;2383;48.632;10.156;2023-06-14T08:01:24;4.93;;;3.40;;
4738;SDS011;2383;48.632;10.156;2023-06-14T08:05:27;4.60;;;3.60;;
4738;SDS011;2383;48.632;10.156;2023-06-14T08:09:30;3.75;;;3.33;;
4738;SDS011;2383;48.632;10.156;2023-06-14T08:13:32;5.47;;;4.00;;
4738;SDS011;2383;48.632;10.156;2023-06-14T08:17:34;5.40;;;3.28;;
4738;SDS011;2383;48.632;10.156;2023-06-14T08:21:37;5.35;;;3.75;;
4738;SDS011;2383;48.632;10.156;2023-06-14T08:25:39;6.60;;;3.95;;
4738;SDS011;2383;48.632;10.156;2023-06-14T08:29:41;4.75;;;3.72;;
4738;SDS011;2383;48.632;10.156;2023-06-14T08:33:43;4.97;;;3.65;;
4738;SDS011;2383;48.632;10.156;2023-06-14T08:37:45;5.00;;;3.35;;
4738;SDS011;2383;48.632;10.156;2023-06-14T08:41:47;7.60;;;3.70;;
4738;SDS011;2383;48.632;10.156;2023-06-14T08:45:51;5.57;;;3.30;;
4738;SDS011;2383;48.632;10.156;2023-06-14T08:49:59;5.82;;;3.75;;
4738;SDS011;2383;48.632;10.156;2023-06-14T08:54:02;5.32;;;3.35;;
4738;SDS011;2383;48.632;10.156;2023-06-14T08:58:05;3.35;;;2.95;;
4738;SDS011;2383;48.632;10.156;2023-06-14T09:02:07;4.25;;;3.33;;
4738;SDS011;2383;48.632;10.156;2023-06-14T09:06:14;6.32;;;3.75;;
4738;SDS011;2383;48.632;10.156;2023-06-14T09:10:17;7.32;;;3.30;;
4738;SDS011;2383;48.632;10.156;2023-06-14T09:14:19;4.40;;;3.67;;
4738;SDS011;2383;48.632;10.156;2023-06-14T09:18:21;5.15;;;3.60;;
4738;SDS011;2383;48.632;10.156;2023-06-14T09:22:39;5.70;;;3.28;;
4738;SDS011;2383;48.632;10.156;2023-06-14T09:26:41;4.20;;;3.08;;
4738;SDS011;2383;48.632;10.156;2023-06-14T09:30:43;6.90;;;3.20;;
4738;SDS011;2383;48.632;10.156;2023-06-14T09:34:45;6.90;;;3.53;;
4738;SDS011;2383;48.632;10.156;2023-06-14T09:38:54;5.90;;;3.15;;
4738;SDS011;2383;48.632;10.156;2023-06-14T09:43:02;5.55;;;3.08;;
4738;SDS011;2383;48.632;10.156;2023-06-14T09:47:08;6.25;;;2.78;;
4738;SDS011;2383;48.632;10.156;2023-06-14T09:51:10;6.50;;;3.05;;
4738;SDS011;2383;48.632;10.156;2023-06-14T09:55:16;5.95;;;2.85;;
4738;SDS011;2383;48.632;10.156;2023-06-14T09:59:21;6.28;;;3.00;;
4738;SDS011;2383;48.632;10.156;2023-06-14T10:03:31;6.32;;;3.10;;
4738;SDS011;2383;48.632;10.156;2023-06-14T10:08:00;5.15;;;3.17;;
4738;SDS011;2383;48.632;10.156;2023-06-14T10:12:05;3.42;;;3.13;;
4738;SDS011;2383;48.632;10.156;2023-06-14T10:20:27;3.03;;;2.53;;
4738;SDS011;2383;48.632;10.156;2023-06-14T10:24:41;4.88;;;3.22;;
4738;SDS011;2383;48.632;10.156;2023-06-14T10:28:47;3.30;;;2.75;;
4738;SDS011;2383;48.632;10.156;2023-06-14T10:33:08;5.75;;;2.72;;
4738;SDS011;2383;48.632;10.156;2023-06-14T10:37:12;7.05;;;3.47;;
4738;SDS011;2383;48.632;10.156;2023-06-14T10:41:15;5.03;;;3.03;;
4738;SDS011;2383;48.632;10.156;2023-06-14T10:45:18;4.05;;;3.03;;
4738;SDS011;2383;48.632;10.156;2023-06-14T10:49:37;4.05;;;2.88;;
4738;SDS011;2383;48.632;10.156;2023-06-14T10:53:44;5.60;;;3.50;;
4738;SDS011;2383;48.632;10.156;2023-06-14T11:01:58;6.28;;;2.97;;
4738;SDS011;2383;48.632;10.156;2023-06-14T11:06:15;3.58;;;2.72;;
4738;SDS011;2383;48.632;10.156;2023-06-14T11:10:35;6.50;;;2.78;;
4738;SDS011;2383;48.632;10.156;2023-06-14T11:14:39;4.85;;;2.78;;
4738;SDS011;2383;48.632;10.156;2023-06-14T11:18:41;5.75;;;2.72;;
4738;SDS011;2383;48.632;10.156;2023-06-14T11:22:45;14.77;;;3.33;;
4738;SDS011;2383;48.632;10.156;2023-06-14T11:26:48;3.80;;;3.03;;
4738;SDS011;2383;48.632;10.156;2023-06-14T11:31:00;7.43;;;3.08;;
4738;SDS011;2383;48.632;10.156;2023-06-14T11:35:03;5.63;;;3.13;;
4738;SDS011;2383;48.632;10.156;2023-06-14T11:39:06;4.85;;;3.20;;
4738;SDS011;2383;48.632;10.156;2023-06-14T11:43:10;5.50;;;2.90;;
4738;SDS011;2383;48.632;10.156;2023-06-14T11:47:13;3.25;;;2.95;;
4738;SDS011;2383;48.632;10.156;2023-06-14T11:51:16;5.70;;;3.30;;
4738;SDS011;2383;48.632;10.156;2023-06-14T11:55:18;4.03;;;3.20;;
4738;SDS011;2383;48.632;10.156;2023-06-14T11:59:20;6.35;;;3.10;;
4738;SDS011;2383;48.632;10.156;2023-06-14T12:03:23;5.30;;;3.03;;
4738;SDS011;2383;48.632;10.156;2023-06-14T12:07:32;4.22;;;3.10;;
4738;SDS011;2383;48.632;10.156;2023-06-14T12:11:34;5.43;;;3.05;;
4738;SDS011;2383;48.632;10.156;2023-06-14T12:15:38;3.65;;;2.92;;
4738;SDS011;2383;48.632;10.156;2023-06-14T12:19:43;7.18;;;3.08;;
4738;SDS011;2383;48.632;10.156;2023-06-14T12:23:46;7.53;;;2.70;;
4738;SDS011;2383;48.632;10.156;2023-06-14T12:27:50;4.72;;;3.00;;
4738;SDS011;2383;48.632;10.156;2023-06-14T12:31:52;6.60;;;2.72;;
4738;SDS011;2383;48.632;10.156;2023-06-14T12:35:55;4.95;;;3.80;;
4738;SDS011;2383;48.632;10.156;2023-06-14T12:39:59;6.68;;;4.85;;
4738;SDS011;2383;48.632;10.156;2023-06-14T12:44:01;5.65;;;3.13;;
4738;SDS011;2383;48.632;10.156;2023-06-14T12:48:05;3.63;;;3.05;;
4738;SDS011;2383;48.632;10.156;2023-06-14T12:52:10;5.38;;;3.13;;
4738;SDS011;2383;48.632;10.156;2023-06-14T12:56:12;6.68;;;3.20;;
4738;SDS011;2383;48.632;10.156;2023-06-14T13:00:14;3.75;;;3.38;;
4738;SDS011;2383;48.632;10.156;2023-06-14T13:04:19;5.63;;;3.33;;
4738;SDS011;2383;48.632;10.156;2023-06-14T13:08:21;4.10;;;3.03;;
4738;SDS011;2383;48.632;10.156;2023-06-14T13:12:26;9.73;;;3.30;;
4738;SDS011;2383;48.632;10.156;2023-06-14T13:16:28;10.13;;;3.15;;
4738;SDS011;2383;48.632;10.156;2023-06-14T13:20:30;4.60;;;2.83;;
4738;SDS011;2383;48.632;10.156;2023-06-14T13:24:33;4.47;;;3.00;;
4738;SDS011;2383;48.632;10.156;2023-06-14T13:28:35;4.03;;;3.08;;
4738;SDS011;2383;48.632;10.156;2023-06-14T13:32:37;5.95;;;2.83;;
4738;SDS011;2383;48.632;10.156;2023-06-14T13:36:39;4.35;;;2.90;;
4738;SDS011;2383;48.632;10.156;2023-06-14T13:40:41;6.05;;;3.15;;
4738;SDS011;2383;48.632;10.156;2023-06-14T13:44:43;4.50;;;2.90;;
4738;SDS011;2383;48.632;10.156;2023-06-14T13:48:46;3.35;;;3.05;;
4738;SDS011;2383;48.632;10.156;2023-06-14T13:52:49;3.97;;;3.00;;
4738;SDS011;2383;48.632;10.156;2023-06-14T13:56:51;5.50;;;3.13;;
4738;SDS011;2383;48.632;10.156;2023-06-14T14:00:53;4.03;;;2.60;;
4738;SDS011;2383;48.632;10.156;2023-06-14T14:04:56;4.05;;;2.80;;
4738;SDS011;2383;48.632;10.156;2023-06-14T14:08:58;3.33;;;2.70;;
4738;SDS011;2383;48.632;10.156;2023-06-14T14:13:00;5.53;;;3.10;;
4738;SDS011;2383;48.632;10.156;2023-06-14T14:17:02;8.73;;;3.08;;
4738;SDS011;2383;48.632;10.156;2023-06-14T14:21:05;5.93;;;3.22;;
4738;SDS011;2383;48.632;10.156;2023-06-14T14:25:08;6.90;;;3.10;;
4738;SDS011;2383;48.632;10.156;2023-06-14T14:29:11;5.85;;;2.80;;
4738;SDS011;2383;48.632;10.156;2023-06-14T14:33:13;5.70;;;2.97;;
4738;SDS011;2383;48.632;10.156;2023-06-14T14:37:17;5.10;;;2.90;;
4738;SDS011;2383;48.632;10.156;2023-06-14T14:41:19;3.40;;;2.95;;
4738;SDS011;2383;48.632;10.156;2023-06-14T14:45:21;5.47;;;3.30;;
4738;SDS011;2383;48.632;10.156;2023-06-14T14:49:23;4.65;;;2.88;;
4738;SDS011;2383;48.632;10.156;2023-06-14T14:53:25;4.95;;;2.70;;
4738;SDS011;2383;48.632;10.156;2023-06-14T14:57:27;6.60;;;3.47;;
4738;SDS011;2383;48.632;10.156;2023-06-14T15:01:31;3.45;;;2.75;;
4738;SDS011;2383;48.632;10.156;2023-06-14T15:05:33;4.20;;;3.38;;
4738;SDS011;2383;48.632;10.156;2023-06-14T15:09:35;5.45;;;3.15;;
4738;SDS011;2383;48.632;10.156;2023-06-14T15:13:37;5.03;;;3.05;;
4738;SDS011;2383;48.632;10.156;2023-06-14T15:17:39;9.45;;;3.15;;
4738;SDS011;2383;48.632;10.156;2023-06-14T15:21:41;4.47;;;3.00;;
4738;SDS011;2383;48.632;10.156;2023-06-14T15:25:43;4.78;;;3.10;;
4738;SDS011;2383;48.632;10.156;2023-06-14T15:29:45;3.92;;;3.05;;
4738;SDS011;2383;48.632;10.156;2023-06-14T15:33:51;4.75;;;2.97;;
4738;SDS011;2383;48.632;10.156;2023-06-14T15:37:53;3.47;;;3.05;;
4738;SDS011;2383;48.632;10.156;2023-06-14T15:41:55;3.45;;;3.10;;
4738;SDS011;2383;48.632;10.156;2023-06-14T15:45:57;7.10;;;5.32;;
4738;SDS011;2383;48.632;10.156;2023-06-14T15:50:00;6.82;;;2.95;;
4738;SDS011;2383;48.632;10.156;2023-06-14T15:54:02;6.32;;;3.10;;
4738;SDS011;2383;48.632;10.156;2023-06-14T15:58:04;6.70;;;3.20;;
4738;SDS011;2383;48.632;10.156;2023-06-14T16:02:06;10.60;;;5.95;;
4738;SDS011;2383;48.632;10.156;2023-06-14T16:06:10;10.85;;;5.90;;
4738;SDS011;2383;48.632;10.156;2023-06-14T16:10:12;4.55;;;3.10;;
4738;SDS011;2383;48.632;10.156;2023-06-14T16:14:14;3.08;;;2.75;;
4738;SDS011;2383;48.632;10.156;2023-06-14T16:18:16;5.32;;;2.95;;
4738;SDS011;2383;48.632;10.156;2023-06-14T16:22:18;4.00;;;2.97;;
4738;SDS011;2383;48.632;10.156;2023-06-14T16:26:20;9.25;;;3.67;;
4738;SDS011;2383;48.632;10.156;2023-06-14T16:30:22;7.60;;;3.13;;
4738;SDS011;2383;48.632;10.156;2023-06-14T16:34:24;6.35;;;2.85;;
4738;SDS011;2383;48.632;10.156;2023-06-14T16:38:27;3.75;;;2.90;;
4738;SDS011;2383;48.632;10.156;2023-06-14T16:42:29;4.15;;;3.08;;
4738;SDS011;2383;48.632;10.156;2023-06-14T16:46:33;5.15;;;3.08;;
4738;SDS011;2383;48.632;10.156;2023-06-14T16:50:36;4.78;;;2.75;;
4738;SDS011;2383;48.632;10.156;2023-06-14T16:54:38;4.13;;;2.88;;
4738;SDS011;2383;48.632;10.156;2023-06-14T16:58:40;3.70;;;2.60;;
4738;SDS011;2383;48.632;10.156;2023-06-14T17:02:42;5.85;;;3.17;;
4738;SDS011;2383;48.632;10.156;2023-06-14T17:06:47;4.88;;;3.03;;
4738;SDS011;2383;48.632;10.156;2023-06-14T17:10:49;6.97;;;3.35;;
4738;SDS011;2383;48.632;10.156;2023-06-14T17:14:52;7.75;;;3.80;;
4738;SDS011;2383;48.632;10.156;2023-06-14T17:18:54;18.15;;;3.30;;
4738;SDS011;2383;48.632;10.156;2023-06-14T17:22:56;5.38;;;3.08;;
4738;SDS011;2383;48.632;10.156;2023-06-14T17:26:58;4.18;;;3.10;;
4738;SDS011;2383;48.632;10.156;2023-06-14T17:31:01;3.85;;;3.17;;
4738;SDS011;2383;48.632;10.156;2023-06-14T17:35:03;5.53;;;3.30;;
4738;SDS011;2383;48.632;10.156;2023-06-14T17:39:05;5.30;;;3.00;;
4738;SDS011;2383;48.632;10.156;2023-06-14T17:43:07;6.82;;;3.53;;
4738;SDS011;2383;48.632;10.156;2023-06-14T17:47:10;7.68;;;3.10;;
4738;SDS011;2383;48.632;10.156;2023-06-14T17:51:31;5.20;;;3.50;;
4738;SDS011;2383;48.632;10.156;2023-06-14T17:55:33;15.45;;;3.55;;
4738;SDS011;2383;48.632;10.156;2023-06-14T17:59:35;5.38;;;3.30;;
4738;SDS011;2383;48.632;10.156;2023-06-14T18:03:37;10.13;;;3.13;;
4738;SDS011;2383;48.632;10.156;2023-06-14T18:07:40;6.65;;;3.40;;
4738;SDS011;2383;48.632;10.156;2023-06-14T18:11:42;8.35;;;3.22;;
4738;SDS011;2383;48.632;10.156;2023-06-14T18:15:44;12.50;;;3.30;;
4738;SDS011;2383;48.632;10.156;2023-06-14T18:19:46;6.25;;;3.22;;
4738;SDS011;2383;48.632;10.156;2023-06-14T18:23:49;5.90;;;3.25;;
4738;SDS011;2383;48.632;10.156;2023-06-14T18:27:55;5.68;;;3.33;;
4738;SDS011;2383;48.632;10.156;2023-06-14T18:31:57;7.32;;;3.30;;
4738;SDS011;2383;48.632;10.156;2023-06-14T18:35:59;3.92;;;3.33;;
4738;SDS011;2383;48.632;10.156;2023-06-14T18:40:01;7.22;;;3.17;;
4738;SDS011;2383;48.632;10.156;2023-06-14T18:44:04;11.07;;;3.42;;
4738;SDS011;2383;48.632;10.156;2023-06-14T18:48:07;7.93;;;3.53;;
4738;SDS011;2383;48.632;10.156;2023-06-14T18:52:09;8.13;;;3.35;;
4738;SDS011;2383;48.632;10.156;2023-06-14T18:56:11;7.32;;;3.20;;
4738;SDS011;2383;48.632;10.156;2023-06-14T19:00:13;3.80;;;3.20;;
4738;SDS011;2383;48.632;10.156;2023-06-14T19:04:16;4.90;;;3.47;;
4738;SDS011;2383;48.632;10.156;2023-06-14T19:08:19;7.35;;;3.42;;
4738;SDS011;2383;48.632;10.156;2023-06-14T19:12:21;5.22;;;3.35;;
4738;SDS011;2383;48.632;10.156;2023-06-14T19:16:23;9.05;;;3.80;;
4738;SDS011;2383;48.632;10.156;2023-06-14T19:20:25;6.20;;;3.55;;
4738;SDS011;2383;48.632;10.156;2023-06-14T19:24:28;3.72;;;3.15;;
4738;SDS011;2383;48.632;10.156;2023-06-14T19:28:31;5.60;;;3.38;;
4738;SDS011;2383;48.632;10.156;2023-06-14T19:32:33;5.00;;;3.58;;
4738;SDS011;2383;48.632;10.156;2023-06-14T19:36:36;3.97;;;3.17;;
4738;SDS011;2383;48.632;10.156;2023-06-14T19:40:39;5.97;;;3.50;;
4738;SDS011;2383;48.632;10.156;2023-06-14T19:44:41;3.33;;;3.03;;
4738;SDS011;2383;48.632;10.156;2023-06-14T19:48:43;7.45;;;3.45;;
4738;SDS011;2383;48.632;10.156;2023-06-14T19:52:45;6.82;;;3.65;;
4738;SDS011;2383;48.632;10.156;2023-06-14T19:56:47;4.32;;;3.17;;
4738;SDS011;2383;48.632;10.156;2023-06-14T20:00:49;7.22;;;3.33;;
4738;SDS011;2383;48.632;10.156;2023-06-14T20:04:51;5.05;;;3.38;;
4738;SDS011;2383;48.632;10.156;2023-06-14T20:08:56;8.32;;;3.70;;
4738;SDS011;2383;48.632;10.156;2023-06-14T20:12:58;12.45;;;3.65;;
4738;SDS011;2383;48.632;10.156;2023-06-14T20:17:00;7.22;;;3.78;;
4738;SDS011;2383;48.632;10.156;2023-06-14T20:21:02;6.15;;;3.70;;
4738;SDS011;2383;48.632;10.156;2023-06-14T20:25:05;9.20;;;3.55;;
4738;SDS011;2383;48.632;10.156;2023-06-14T20:29:08;5.05;;;3.72;;
4738;SDS011;2383;48.632;10.156;2023-06-14T20:33:10;4.30;;;3.65;;
4738;SDS011;2383;48.632;10.156;2023-06-14T20:37:12;10.65;;;3.97;;
4738;SDS011;2383;48.632;10.156;2023-06-14T20:41:14;5.63;;;3.92;;
4738;SDS011;2383;48.632;10.156;2023-06-14T20:45:16;5.35;;;3.80;;
4738;SDS011;2383;48.632;10.156;2023-06-14T20:49:19;5.10;;;3.70;;
4738;SDS011;2383;48.632;10.156;2023-06-14T20:53:21;6.03;;;3.47;;
4738;SDS011;2383;48.632;10.156;2023-06-14T20:57:23;7.05;;;3.70;;
4738;SDS011;2383;48.632;10.156;2023-06-14T21:01:25;5.07;;;3.65;;
4738;SDS011;2383;48.632;10.156;2023-06-14T21:05:37;6.45;;;3.95;;
4738;SDS011;2383;48.632;10.156;2023-06-14T21:09:40;5.70;;;3.75;;
4738;SDS011;2383;48.632;10.156;2023-06-14T21:13:42;6.35;;;3.83;;
4738;SDS011;2383;48.632;10.156;2023-06-14T21:17:46;9.18;;;3.88;;
4738;SDS011;2383;48.632;10.156;2023-06-14T21:21:48;4.47;;;3.70;;
4738;SDS011;2383;48.632;10.156;2023-06-14T21:25:50;4.60;;;3.95;;
4738;SDS011;2383;48.632;10.156;2023-06-14T21:29:52;6.55;;;3.80;;
4738;SDS011;2383;48.632;10.156;2023-06-14T21:33:55;7.85;;;4.13;;
4738;SDS011;2383;48.632;10.156;2023-06-14T21:37:57;8.85;;;3.72;;
4738;SDS011;2383;48.632;10.156;2023-06-14T21:41:59;10.98;;;4.35;;
4738;SDS011;2383;48.632;10.156;2023-06-14T21:46:01;5.25;;;3.72;;
4738;SDS011;2383;48.632;10.156;2023-06-14T21:50:04;7.22;;;3.92;;
4738;SDS011;2383;48.632;10.156;2023-06-14T21:54:06;5.65;;;4.00;;
4738;SDS011;2383;48.632;10.156;2023-06-14T21:58:09;7.57;;;3.85;;
4738;SDS011;2383;48.632;10.156;2023-06-14T22:02:11;9.82;;;4.18;;
4738;SDS011;2383;48.632;10.156;2023-06-14T22:06:13;3.95;;;3.55;;
4738;SDS011;2383;48.632;10.156;2023-06-14T22:10:16;8.63;;;4.03;;
4738;SDS011;2383;48.632;10.156;2023-06-14T22:14:19;4.40;;;4.00;;
4738;SDS011;2383;48.632;10.156;2023-06-14T22:18:22;7.88;;;4.57;;
4738;SDS011;2383;48.632;10.156;2023-06-14T22:22:24;7.63;;;4.75;;
4738;SDS011;2383;48.632;10.156;2023-06-14T22:26:28;6.97;;;4.88;;
4738;SDS011;2383;48.632;10.156;2023-06-14T22:30:41;7.90;;;4.53;;
4738;SDS011;2383;48.632;10.156;2023-06-14T22:34:46;8.45;;;4.28;;
4738;SDS011;2383;48.632;10.156;2023-06-14T22:38:48;6.22;;;4.47;;
4738;SDS011;2383;48.632;10.156;2023-06-14T22:42:50;4.55;;;4.03;;
4738;SDS011;2383;48.632;10.156;2023-06-14T22:46:55;5.28;;;4.45;;
4738;SDS011;2383;48.632;10.156;2023-06-14T22:51:01;5.18;;;4.28;;
4738;SDS011;2383;48.632;10.156;2023-06-14T22:55:03;10.45;;;4.20;;
4738;SDS011;2383;48.632;10.156;2023-06-14T22:59:06;8.77;;;4.18;;
4738;SDS011;2383;48.632;10.156;2023-06-14T23:03:09;9.75;;;4.35;;
4738;SDS011;2383;48.632;10.156;2023-06-14T23:07:12;7.60;;;4.43;;
4738;SDS011;2383;48.632;10.156;2023-06-14T23:11:15;7.10;;;4.50;;
4738;SDS011;2383;48.632;10.156;2023-06-14T23:15:18;10.88;;;4.05;;
4738;SDS011;2383;48.632;10.156;2023-06-14T23:19:20;6.38;;;4.80;;
4738;SDS011;2383;48.632;10.156;2023-06-14T23:23:24;7.75;;;4.13;;
4738;SDS011;2383;48.632;10.156;2023-06-14T23:27:28;5.32;;;4.38;;
4738;SDS011;2383;48.632;10.156;2023-06-14T23:31:31;8.05;;;4.50;;
4738;SDS011;2383;48.632;10.156;2023-06-14T23:35:34;5.38;;;4.22;;
4738;SDS011;2383;48.632;10.156;2023-06-14T23:39:37;8.35;;;4.55;;
4738;SDS011;2383;48.632;10.156;2023-06-14T23:43:49;6.28;;;4.22;;
4738;SDS011;2383;48.632;10.156;2023-06-14T23:47:52;9.25;;;4.35;;
4738;SDS011;2383;48.632;10.156;2023-06-14T23:51:55;7.05;;;4.93;;
4738;SDS011;2383;48.632;10.156;2023-06-14T23:55:59;9.93;;;4.72;;
